createdAt,value
2022-08-07T00:02:35.524Z,18.27
2022-08-07T00:04:15.523Z,18.25
2022-08-07T00:06:52.146Z,18.24
2022-08-07T00:09:29.138Z,18.22
2022-08-07T00:12:01.811Z,18.16
2022-08-07T00:14:41.449Z,18.09
2022-08-07T00:17:12.359Z,17.97
2022-08-07T00:20:01.318Z,17.96
2022-08-07T00:22:35.379Z,17.97
2022-08-07T00:25:05.055Z,17.91
2022-08-07T00:27:35.866Z,17.86
2022-08-07T00:30:28.731Z,17.81
2022-08-07T00:32:56.532Z,17.80
2022-08-07T00:35:23.966Z,17.82
2022-08-07T00:37:55.294Z,17.80
2022-08-07T00:40:36.682Z,17.80
2022-08-07T00:43:09.753Z,17.85
2022-08-07T00:45:38.658Z,17.83
2022-08-07T00:48:11.006Z,17.84
2022-08-07T00:50:51.120Z,17.78
2022-08-07T00:53:21.258Z,17.75
2022-08-07T00:56:02.795Z,17.74
2022-08-07T00:58:31.012Z,17.74
2022-08-07T01:01:00.360Z,17.74
2022-08-07T01:03:56.438Z,17.74
2022-08-07T01:06:18.124Z,17.76
2022-08-07T01:08:53.340Z,17.74
2022-08-07T01:12:26.539Z,17.74
2022-08-07T01:14:12.364Z,17.72
2022-08-07T01:16:47.155Z,17.75
2022-08-07T01:19:18.785Z,17.72
2022-08-07T01:21:53.369Z,17.73
2022-08-07T01:24:23.250Z,17.75
2022-08-07T01:26:51.720Z,17.75
2022-08-07T01:29:23.136Z,17.72
2022-08-07T01:31:50.954Z,17.73
2022-08-07T01:34:18.680Z,17.69
2022-08-07T01:36:52.813Z,17.70
2022-08-07T01:39:39.595Z,17.67
2022-08-07T01:42:40.058Z,17.66
2022-08-07T01:44:57.076Z,17.67
2022-08-07T01:48:19.231Z,17.63
2022-08-07T01:50:13.116Z,17.62
2022-08-07T01:52:49.581Z,17.65
2022-08-07T01:55:25.532Z,17.62
2022-08-07T01:58:06.428Z,17.54
2022-08-07T02:00:49.064Z,17.53
2022-08-07T02:03:26.380Z,17.58
2022-08-07T02:06:30.814Z,17.52
2022-08-07T02:08:56.028Z,17.52
2022-08-07T02:11:30.772Z,17.50
2022-08-07T02:14:35.435Z,17.55
2022-08-07T02:17:00.154Z,17.53
2022-08-07T02:20:06.918Z,17.48
2022-08-07T02:22:18.566Z,17.45
2022-08-07T02:24:49.621Z,17.46
2022-08-07T02:27:22.861Z,17.31
2022-08-07T02:29:54.578Z,17.33
2022-08-07T02:32:29.949Z,17.33
2022-08-07T02:34:58.725Z,17.37
2022-08-07T02:37:33.925Z,17.33
2022-08-07T02:40:30.254Z,17.33
2022-08-07T02:42:56.179Z,17.37
2022-08-07T02:45:58.462Z,17.38
2022-08-07T02:48:15.542Z,17.40
2022-08-07T02:50:45.579Z,17.41
2022-08-07T02:53:19.561Z,17.47
2022-08-07T02:56:03.100Z,17.43
2022-08-07T02:58:34.026Z,17.41
2022-08-07T03:01:03.945Z,17.39
2022-08-07T03:03:49.093Z,17.33
2022-08-07T03:06:26.141Z,17.33
2022-08-07T03:09:01.896Z,17.29
2022-08-07T03:11:38.868Z,17.29
2022-08-07T03:14:20.146Z,17.29
2022-08-07T03:16:50.117Z,17.18
2022-08-07T03:19:20.884Z,17.18
2022-08-07T03:21:50.798Z,17.17
2022-08-07T03:24:27.047Z,17.20
2022-08-07T03:27:01.329Z,17.22
2022-08-07T03:29:33.938Z,17.26
2022-08-07T03:32:08.327Z,17.24
2022-08-07T03:34:39.587Z,17.21
2022-08-07T03:37:18.529Z,17.13
2022-08-07T03:39:59.922Z,17.09
2022-08-07T03:42:37.570Z,17.07
2022-08-07T03:45:06.132Z,17.05
2022-08-07T03:47:47.832Z,17.06
2022-08-07T03:50:23.180Z,17.05
2022-08-07T03:52:52.785Z,17.04
2022-08-07T03:55:19.948Z,17.05
2022-08-07T03:58:33.366Z,17.01
2022-08-07T04:00:46.130Z,16.99
2022-08-07T04:03:14.538Z,16.95
2022-08-07T04:05:42.268Z,16.97
2022-08-07T04:08:11.970Z,17.01
2022-08-07T04:10:40.166Z,17.03
2022-08-07T04:13:15.351Z,17.05
2022-08-07T04:15:45.524Z,16.99
2022-08-07T04:18:56.178Z,17.04
2022-08-07T04:21:01.246Z,17.05
2022-08-07T04:23:43.612Z,17.05
2022-08-07T04:26:21.640Z,17.03
2022-08-07T04:28:50.754Z,17.02
2022-08-07T04:31:38.389Z,17.00
2022-08-07T04:34:16.446Z,16.99
2022-08-07T04:36:49.487Z,16.99
2022-08-07T04:39:18.674Z,17.00
2022-08-07T04:41:53.132Z,17.04
2022-08-07T04:44:22.167Z,17.08
2022-08-07T04:47:07.791Z,17.10
2022-08-07T04:49:58.221Z,17.07
2022-08-07T04:52:51.141Z,17.10
2022-08-07T04:58:11.835Z,17.11
2022-08-07T04:58:29.355Z,17.15
2022-08-07T05:01:22.640Z,17.18
2022-08-07T05:04:12.271Z,17.19
2022-08-07T05:06:53.830Z,17.19
2022-08-07T05:09:45.674Z,17.13
2022-08-07T05:12:27.430Z,17.20
2022-08-07T05:15:04.866Z,17.27
2022-08-07T05:17:51.643Z,17.25
2022-08-07T05:20:26.396Z,17.27
2022-08-07T05:22:57.107Z,17.31
2022-08-07T05:25:54.501Z,17.37
2022-08-07T05:28:23.086Z,17.43
2022-08-07T05:30:52.577Z,17.48
2022-08-07T05:33:24.018Z,17.54
2022-08-07T05:35:55.349Z,17.59
2022-08-07T05:39:00.644Z,17.68
2022-08-07T05:41:12.349Z,17.73
2022-08-07T05:44:07.705Z,17.80
2022-08-07T05:46:35.418Z,17.80
2022-08-07T05:49:11.606Z,17.77
2022-08-07T05:51:40.750Z,17.82
2022-08-07T05:54:30.001Z,17.89
2022-08-07T05:56:58.897Z,17.96
2022-08-07T05:59:27.407Z,18.03
2022-08-07T06:01:59.363Z,18.03
2022-08-07T06:04:30.155Z,18.06
2022-08-07T06:07:03.626Z,18.13
2022-08-07T06:10:03.749Z,18.17
2022-08-07T06:12:31.858Z,18.23
2022-08-07T06:15:05.854Z,18.29
2022-08-07T06:17:38.004Z,18.35
2022-08-07T06:20:25.162Z,18.38
2022-08-07T06:23:25.023Z,18.43
2022-08-07T06:25:54.281Z,18.45
2022-08-07T06:28:27.670Z,18.50
2022-08-07T06:30:58.376Z,18.54
2022-08-07T06:33:26.338Z,18.59
2022-08-07T06:36:06.871Z,18.65
2022-08-07T06:38:58.875Z,18.68
2022-08-07T06:42:00.417Z,18.69
2022-08-07T06:44:21.781Z,18.78
2022-08-07T06:46:53.473Z,18.75
2022-08-07T06:49:50.802Z,18.76
2022-08-07T06:52:31.987Z,18.81
2022-08-07T06:55:33.100Z,18.89
2022-08-07T06:57:57.679Z,18.97
2022-08-07T07:00:31.366Z,19.06
2022-08-07T07:03:00.971Z,19.14
2022-08-07T07:06:03.164Z,19.19
2022-08-07T07:08:26.448Z,19.21
2022-08-07T07:10:56.570Z,19.25
2022-08-07T07:13:56.413Z,19.29
2022-08-07T07:16:27.614Z,19.34
2022-08-07T07:19:11.101Z,19.31
2022-08-07T07:22:05.191Z,19.42
2022-08-07T07:24:56.732Z,19.48
2022-08-07T07:27:35.733Z,19.52
2022-08-07T07:30:32.483Z,19.55
2022-08-07T07:33:06.463Z,19.62
2022-08-07T07:35:54.240Z,19.67
2022-08-07T07:38:24.931Z,19.76
2022-08-07T07:41:01.456Z,19.86
2022-08-07T07:43:47.942Z,20.00
2022-08-07T07:46:37.201Z,20.11
2022-08-07T07:50:32.962Z,20.20
2022-08-07T07:51:59.612Z,20.30
2022-08-07T07:54:28.481Z,20.35
2022-08-07T07:56:59.062Z,20.41
2022-08-07T07:59:52.266Z,20.45
2022-08-07T08:02:22.660Z,20.48
2022-08-07T08:05:04.771Z,20.48
2022-08-07T08:07:35.583Z,20.45
2022-08-07T08:10:35.346Z,20.53
2022-08-07T08:13:06.704Z,20.66
2022-08-07T08:15:59.214Z,20.74
2022-08-07T08:18:29.309Z,20.73
2022-08-07T08:21:00.562Z,20.79
2022-08-07T08:23:30.728Z,20.89
2022-08-07T08:26:07.155Z,21.04
2022-08-07T08:28:45.147Z,21.14
2022-08-07T08:31:30.221Z,21.17
2022-08-07T08:34:10.120Z,21.29
2022-08-07T08:36:41.558Z,21.37
2022-08-07T08:39:15.316Z,21.34
2022-08-07T08:41:57.587Z,21.34
2022-08-07T08:44:44.512Z,21.33
2022-08-07T08:47:22.814Z,21.33
2022-08-07T08:50:04.889Z,21.34
2022-08-07T08:52:40.955Z,21.33
2022-08-07T08:55:54.532Z,21.37
2022-08-07T08:58:28.818Z,21.46
2022-08-07T09:01:15.752Z,21.62
2022-08-07T09:03:57.008Z,21.61
2022-08-07T09:06:40.400Z,21.70
2022-08-07T09:09:36.632Z,21.76
2022-08-07T09:12:30.444Z,21.85
2022-08-07T09:16:20.377Z,21.92
2022-08-07T09:18:32.234Z,22.03
2022-08-07T09:21:13.862Z,22.13
2022-08-07T09:24:32.198Z,22.19
2022-08-07T09:27:13.393Z,22.31
2022-08-07T09:30:05.650Z,22.36
2022-08-07T09:33:16.630Z,22.35
2022-08-07T09:36:22.651Z,22.33
2022-08-07T09:39:27.298Z,22.45
2022-08-07T09:42:07.827Z,22.58
2022-08-07T09:47:51.763Z,22.64
2022-08-07T09:48:00.441Z,22.69
2022-08-07T09:50:40.425Z,22.77
2022-08-07T09:53:12.516Z,22.86
2022-08-07T09:56:03.556Z,22.95
2022-08-07T09:59:07.866Z,23.04
2022-08-07T10:02:09.508Z,23.10
2022-08-07T10:05:12.096Z,23.12
2022-08-07T10:07:59.205Z,23.04
2022-08-07T10:11:07.603Z,23.07
2022-08-07T10:14:01.959Z,23.16
2022-08-07T10:16:45.254Z,23.18
2022-08-07T10:19:31.692Z,23.26
2022-08-07T10:22:24.946Z,23.33
2022-08-07T10:25:32.961Z,23.41
2022-08-07T10:28:50.563Z,23.53
2022-08-07T10:31:49.698Z,23.66
2022-08-07T10:34:31.963Z,23.74
2022-08-07T10:37:12.430Z,23.74
2022-08-07T10:39:57.602Z,23.83
2022-08-07T10:42:40.507Z,23.84
2022-08-07T10:45:44.639Z,23.91
2022-08-07T10:48:34.605Z,23.94
2022-08-07T10:51:07.784Z,23.99
2022-08-07T10:53:51.244Z,24.10
2022-08-07T10:56:32.786Z,24.12
2022-08-07T10:59:21.191Z,24.17
2022-08-07T11:02:11.909Z,24.16
2022-08-07T11:05:08.537Z,24.22
2022-08-07T11:07:59.150Z,24.25
2022-08-07T11:10:38.360Z,24.25
2022-08-07T11:14:41.943Z,24.31
2022-08-07T11:16:10.054Z,24.38
2022-08-07T11:18:41.586Z,24.37
2022-08-07T11:21:17.110Z,24.34
2022-08-07T11:23:54.718Z,24.40
2022-08-07T11:26:27.307Z,24.44
2022-08-07T11:29:02.023Z,24.48
2022-08-07T11:31:41.440Z,24.51
2022-08-07T11:34:19.685Z,24.54
2022-08-07T11:36:58.052Z,24.58
2022-08-07T11:39:59.383Z,24.55
2022-08-07T11:42:40.810Z,24.62
2022-08-07T11:45:20.658Z,24.65
2022-08-07T11:48:18.282Z,24.68
2022-08-07T11:51:41.938Z,24.67
2022-08-07T11:54:27.215Z,24.74
2022-08-07T11:57:12.822Z,24.78
2022-08-07T12:00:10.533Z,24.79
2022-08-07T12:03:06.786Z,24.86
2022-08-07T12:06:39.697Z,24.87
2022-08-07T12:08:57.004Z,24.89
2022-08-07T12:11:32.293Z,24.88
2022-08-07T12:14:07.209Z,24.91
2022-08-07T12:16:51.652Z,24.95
2022-08-07T12:19:35.550Z,24.94
2022-08-07T12:22:37.475Z,24.92
2022-08-07T12:26:03.363Z,24.86
2022-08-07T12:28:30.868Z,24.84
2022-08-07T12:31:04.640Z,24.84
2022-08-07T12:34:00.743Z,24.84
2022-08-07T12:36:32.793Z,24.81
2022-08-07T12:39:09.379Z,24.74
2022-08-07T12:41:54.081Z,24.75
2022-08-07T12:44:24.511Z,24.73
2022-08-07T12:47:13.417Z,24.77
2022-08-07T12:50:04.584Z,24.77
2022-08-07T12:52:48.780Z,24.72
2022-08-07T12:55:40.707Z,24.69
2022-08-07T12:58:13.930Z,24.55
2022-08-07T13:00:51.012Z,24.49
2022-08-07T13:03:59.316Z,24.42
2022-08-07T13:07:01.984Z,24.38
2022-08-07T13:10:22.028Z,24.33
2022-08-07T13:12:56.851Z,24.41
2022-08-07T13:15:40.037Z,24.45
2022-08-07T13:18:26.582Z,24.52
2022-08-07T13:21:09.946Z,24.58
2022-08-07T13:24:01.981Z,24.56
2022-08-07T13:26:41.886Z,24.59
2022-08-07T13:29:19.262Z,24.61
2022-08-07T13:31:57.497Z,24.49
2022-08-07T13:34:37.657Z,24.45
2022-08-07T13:37:19.797Z,24.43
2022-08-07T13:40:35.946Z,24.41
2022-08-07T13:42:50.363Z,24.42
2022-08-07T13:46:10.872Z,24.42
2022-08-07T13:48:10.899Z,24.44
2022-08-07T13:51:01.280Z,24.50
2022-08-07T13:53:45.738Z,24.44
2022-08-07T13:56:35.460Z,24.49
2022-08-07T13:59:14.254Z,24.53
2022-08-07T14:02:04.030Z,24.52
2022-08-07T14:04:49.667Z,24.48
2022-08-07T14:07:21.420Z,24.50
2022-08-07T14:10:02.433Z,24.53
2022-08-07T14:12:53.991Z,24.59
2022-08-07T14:15:35.020Z,24.63
2022-08-07T14:18:23.522Z,24.69
2022-08-07T14:21:08.079Z,24.72
2022-08-07T14:24:00.200Z,24.74
2022-08-07T14:26:32.336Z,24.73
2022-08-07T14:29:10.567Z,24.77
2022-08-07T14:31:57.962Z,24.77
2022-08-07T14:34:30.781Z,24.82
2022-08-07T14:37:01.711Z,24.84
2022-08-07T14:40:17.597Z,24.86
2022-08-07T14:42:31.313Z,24.86
2022-08-07T14:45:22.307Z,24.90
2022-08-07T14:47:58.734Z,24.94
2022-08-07T14:50:28.829Z,24.91
2022-08-07T14:53:08.031Z,24.90
2022-08-07T14:55:39.330Z,24.87
2022-08-07T14:58:28.096Z,24.86
2022-08-07T15:01:00.037Z,24.87
2022-08-07T15:06:40.005Z,24.90
2022-08-07T15:09:59.630Z,24.93
2022-08-07T15:15:07.595Z,24.87
2022-08-07T15:17:55.151Z,24.83
2022-08-07T15:20:38.590Z,24.85
2022-08-07T15:25:02.886Z,24.86
2022-08-07T15:26:21.299Z,24.82
2022-08-07T15:28:59.575Z,24.86
2022-08-07T15:31:57.799Z,24.87
2022-08-07T15:34:34.407Z,24.81
2022-08-07T15:37:07.035Z,24.81
2022-08-07T15:42:51.871Z,24.78
2022-08-07T15:45:56.340Z,24.80
2022-08-07T15:48:25.796Z,24.78
2022-08-07T15:53:53.162Z,24.77
2022-08-07T15:56:25.149Z,24.75
2022-08-07T15:58:54.570Z,24.73
2022-08-07T16:01:38.588Z,24.70
2022-08-07T16:04:15.084Z,24.69
2022-08-07T16:06:49.773Z,24.68
2022-08-07T16:09:42.146Z,24.67
2022-08-07T16:12:38.949Z,24.67
2022-08-07T16:15:55.597Z,24.64
2022-08-07T16:18:43.489Z,24.61
2022-08-07T16:22:01.498Z,24.52
2022-08-07T16:24:03.701Z,24.51
2022-08-07T16:27:18.353Z,24.48
2022-08-07T16:30:30.341Z,24.36
2022-08-07T16:34:01.956Z,24.31
2022-08-07T16:36:31.203Z,24.22
2022-08-07T16:39:40.276Z,24.09
2022-08-07T16:42:43.135Z,24.01
2022-08-07T16:46:33.695Z,23.94
2022-08-07T16:48:53.829Z,23.81
2022-08-07T16:52:01.489Z,23.79
2022-08-07T16:54:58.859Z,23.61
2022-08-07T16:58:03.545Z,23.51
2022-08-07T17:00:38.555Z,23.46
2022-08-07T17:03:57.754Z,23.38
2022-08-07T17:10:08.198Z,23.25
2022-08-07T17:13:00.949Z,23.15
2022-08-07T17:15:43.833Z,23.08
2022-08-07T17:18:25.928Z,22.97
2022-08-07T17:20:55.106Z,22.93
2022-08-07T17:23:43.095Z,22.88
2022-08-07T17:26:23.347Z,22.79
2022-08-07T17:29:09.683Z,22.68
2022-08-07T17:32:31.108Z,22.61
2022-08-07T17:35:51.742Z,22.58
2022-08-07T17:38:33.110Z,22.51
2022-08-07T17:42:02.409Z,22.48
2022-08-07T17:44:02.822Z,22.41
2022-08-07T17:46:54.604Z,22.30
2022-08-07T17:49:30.718Z,22.22
2022-08-07T17:52:30.944Z,22.19
2022-08-07T17:55:08.275Z,22.12
2022-08-07T17:57:58.638Z,22.02
2022-08-07T18:00:48.943Z,22.01
2022-08-07T18:03:26.909Z,21.98
2022-08-07T18:06:09.285Z,21.91
2022-08-07T18:09:02.024Z,21.97
2022-08-07T18:12:17.400Z,22.00
2022-08-07T18:14:37.333Z,22.01
2022-08-07T18:18:44.900Z,22.01
2022-08-07T18:21:09.468Z,21.93
2022-08-07T18:23:41.990Z,21.87
2022-08-07T18:26:05.307Z,21.84
2022-08-07T18:29:03.421Z,21.82
2022-08-07T18:31:51.147Z,21.77
2022-08-07T18:35:00.526Z,21.69
2022-08-07T18:38:55.821Z,21.60
2022-08-07T18:41:02.775Z,21.58
2022-08-07T18:43:57.409Z,21.57
2022-08-07T18:46:34.329Z,21.57
2022-08-07T18:50:32.558Z,21.52
2022-08-07T18:52:37.519Z,21.42
2022-08-07T18:55:42.070Z,21.44
2022-08-07T18:58:14.371Z,21.41
2022-08-07T19:00:55.074Z,21.37
2022-08-07T19:03:37.963Z,21.41
2022-08-07T19:06:16.384Z,21.40
2022-08-07T19:09:09.513Z,21.42
2022-08-07T19:12:17.498Z,21.40
2022-08-07T19:15:00.541Z,21.36
2022-08-07T19:18:01.141Z,21.34
2022-08-07T19:20:33.633Z,21.23
2022-08-07T19:23:17.822Z,21.22
2022-08-07T19:26:25.326Z,21.16
2022-08-07T19:30:56.981Z,21.13
2022-08-07T19:32:07.744Z,21.10
2022-08-07T19:34:36.374Z,21.09
2022-08-07T19:37:17.541Z,21.07
2022-08-07T19:39:57.603Z,21.04
2022-08-07T19:42:31.341Z,21.02
2022-08-07T19:45:08.398Z,21.04
2022-08-07T19:47:41.950Z,20.91
2022-08-07T19:50:40.801Z,20.87
2022-08-07T19:54:34.122Z,20.82
2022-08-07T19:55:59.983Z,20.78
2022-08-07T19:58:36.656Z,20.74
2022-08-07T20:01:19.187Z,20.70
2022-08-07T20:04:08.577Z,20.65
2022-08-07T20:06:49.926Z,20.59
2022-08-07T20:10:37.682Z,20.56
2022-08-07T20:12:34.883Z,20.56
2022-08-07T20:15:18.721Z,20.50
2022-08-07T20:18:04.287Z,20.41
2022-08-07T20:20:39.985Z,20.39
2022-08-07T20:23:40.264Z,20.34
2022-08-07T20:26:10.032Z,20.32
2022-08-07T20:28:44.415Z,20.24
2022-08-07T20:31:21.323Z,20.11
2022-08-07T20:34:02.189Z,19.98
2022-08-07T20:36:51.885Z,19.90
2022-08-07T20:40:01.487Z,19.88
2022-08-07T20:42:14.228Z,19.89
2022-08-07T20:45:33.052Z,19.90
2022-08-07T20:48:28.270Z,19.91
2022-08-07T20:51:14.188Z,19.95
2022-08-07T20:54:02.804Z,19.93
2022-08-07T20:56:46.231Z,19.86
2022-08-07T21:00:04.797Z,19.83
2022-08-07T21:02:23.155Z,19.81
2022-08-07T21:05:10.046Z,19.74
2022-08-07T21:08:04.188Z,19.68
2022-08-07T21:10:40.161Z,19.73
2022-08-07T21:13:24.690Z,19.69
2022-08-07T21:16:11.417Z,19.69
2022-08-07T21:18:46.254Z,19.67
2022-08-07T21:21:20.174Z,19.64
2022-08-07T21:24:20.900Z,19.63
2022-08-07T21:26:59.080Z,19.58
2022-08-07T21:29:33.553Z,19.57
2022-08-07T21:32:43.732Z,19.54
2022-08-07T21:35:01.820Z,19.54
2022-08-07T21:37:58.714Z,19.53
2022-08-07T21:40:36.067Z,19.53
2022-08-07T21:43:11.039Z,19.54
2022-08-07T21:46:08.559Z,19.59
2022-08-07T21:48:43.875Z,19.53
2022-08-07T21:51:32.176Z,19.54
2022-08-07T21:54:09.312Z,19.58
2022-08-07T21:56:49.014Z,19.53
2022-08-07T22:00:02.844Z,19.50
2022-08-07T22:02:27.745Z,19.40
2022-08-07T22:05:00.697Z,19.44
2022-08-07T22:07:57.879Z,19.43
2022-08-07T22:10:24.679Z,19.41
2022-08-07T22:12:59.315Z,19.46
2022-08-07T22:16:44.881Z,19.47
2022-08-07T22:18:25.874Z,19.47
2022-08-07T22:21:01.573Z,19.47
2022-08-07T22:23:43.514Z,19.51
2022-08-07T22:26:21.797Z,19.48
2022-08-07T22:28:59.667Z,19.49
2022-08-07T22:31:55.932Z,19.46
2022-08-07T22:34:35.655Z,19.49
2022-08-07T22:37:13.116Z,19.45
2022-08-07T22:39:52.939Z,19.46
2022-08-07T22:42:25.863Z,19.46
2022-08-07T22:44:59.888Z,19.43
2022-08-07T22:48:31.738Z,19.43
2022-08-07T22:51:16.397Z,19.42
2022-08-07T22:54:07.872Z,19.45
2022-08-07T22:56:56.451Z,19.43
2022-08-07T22:59:59.209Z,19.42
2022-08-07T23:02:42.472Z,19.44
2022-08-07T23:06:10.186Z,19.42
2022-08-07T23:08:58.611Z,19.41
2022-08-07T23:11:59.158Z,19.40
2022-08-07T23:14:58.444Z,19.43
2022-08-07T23:17:41.748Z,19.37
2022-08-07T23:20:40.788Z,19.41
2022-08-07T23:24:05.534Z,19.40
2022-08-07T23:26:49.973Z,19.42
2022-08-07T23:30:36.167Z,19.37
2022-08-07T23:34:21.642Z,19.34
2022-08-07T23:35:42.530Z,19.31
2022-08-07T23:38:36.948Z,19.26
2022-08-07T23:41:33.639Z,19.28
2022-08-07T23:44:30.966Z,19.31
2022-08-07T23:47:17.927Z,19.30
2022-08-07T23:50:35.428Z,19.31
2022-08-07T23:53:17.517Z,19.29
2022-08-07T23:55:55.800Z,19.22
2022-08-07T23:58:32.494Z,19.19
